Time;durP1;ratioP1;P1;durP2;ratioP2;P2;SDS_P1;SDS_P2;PMS_P1;PMS_P2;Temp;Humidity;BMP_temperature;BMP_pressure;BME280_temperature;BME280_humidity;BME280_pressure;Samples;Min_cycle;Max_cycle;Signal;HPM_P1;HPM_P2
2021/03/08 00:01:29;;;;;;;45.47;24.83;;;;;;;3.22;100.00;101139.97;5209794;28;20013;-75
2021/03/08 00:03:59;;;;;;;43.30;24.55;;;;;;;3.22;100.00;101143.41;5211376;28;20031;-74
2021/03/08 00:06:30;;;;;;;45.60;24.73;;;;;;;3.17;100.00;101141.69;5219039;28;20021;-75
2021/03/08 00:09:00;;;;;;;45.05;24.73;;;;;;;3.32;100.00;101136.53;5216220;28;20036;-75
2021/03/08 00:11:30;;;;;;;46.38;25.60;;;;;;;3.07;100.00;101145.09;5219906;28;20025;-75
2021/03/08 00:14:01;;;;;;;45.33;25.13;;;;;;;3.23;100.00;101146.84;5226052;28;20032;-75
2021/03/08 00:16:31;;;;;;;50.38;27.33;;;;;;;3.20;100.00;101139.09;5226753;28;20493;-75
2021/03/08 00:19:01;;;;;;;45.53;25.42;;;;;;;3.43;100.00;101137.44;5224530;28;20056;-75
2021/03/08 00:21:32;;;;;;;46.95;26.23;;;;;;;3.47;100.00;101136.56;5224846;28;20087;-75
2021/03/08 00:24:02;;;;;;;49.13;27.80;;;;;;;3.44;100.00;101139.16;5224126;28;20063;-75
2021/03/08 00:26:33;;;;;;;49.38;26.35;;;;;;;3.36;100.00;101133.13;5220904;28;20025;-75
2021/03/08 00:29:03;;;;;;;51.45;28.10;;;;;;;3.15;100.00;101138.22;5223108;28;20437;-75
2021/03/08 00:31:33;;;;;;;51.72;28.25;;;;;;;3.32;100.00;101141.69;5231330;28;20392;-75
2021/03/08 00:34:04;;;;;;;55.42;30.00;;;;;;;3.37;100.00;101148.59;5220281;28;20029;-75
2021/03/08 00:36:34;;;;;;;54.17;29.08;;;;;;;3.43;100.00;101151.22;5217663;28;20029;-75
2021/03/08 00:39:05;;;;;;;50.58;28.80;;;;;;;3.25;100.00;101139.97;5209967;28;20051;-75
2021/03/08 00:41:35;;;;;;;52.65;29.20;;;;;;;3.40;100.00;101147.75;5227054;28;20020;-75
2021/03/08 00:44:05;;;;;;;52.05;28.55;;;;;;;3.28;100.00;101137.41;5229052;28;20425;-75
2021/03/08 00:46:36;;;;;;;62.10;30.25;;;;;;;3.36;100.00;101133.97;5226494;28;20029;-75
2021/03/08 00:49:06;;;;;;;61.28;30.90;;;;;;;3.53;100.00;101146.94;5232698;28;20024;-75
2021/03/08 00:51:36;;;;;;;59.60;30.48;;;;;;;3.53;100.00;101146.94;5229943;28;20040;-75
2021/03/08 00:54:07;;;;;;;61.10;29.83;;;;;;;3.55;100.00;101146.06;5233100;28;20114;-75
2021/03/08 00:56:37;;;;;;;60.20;30.92;;;;;;;3.58;100.00;101139.19;5227703;28;20032;-75
2021/03/08 00:59:07;;;;;;;55.83;30.15;;;;;;;3.51;100.00;101140.91;5224042;28;20025;-75
2021/03/08 01:01:37;;;;;;;59.70;31.73;;;;;;;3.62;100.00;101143.50;5221135;28;20021;-75
2021/03/08 01:04:08;;;;;;;57.13;30.30;;;;;;;3.56;100.00;101136.59;5223774;28;20131;-75
2021/03/08 01:06:38;;;;;;;51.40;27.50;;;;;;;3.51;100.00;101135.75;5224220;28;20024;-74
2021/03/08 01:09:08;;;;;;;50.55;26.38;;;;;;;3.45;100.00;101126.25;5223145;28;20060;-75
2021/03/08 01:11:39;;;;;;;48.28;25.92;;;;;;;3.52;100.00;101129.72;5220293;28;20028;-75
2021/03/08 01:14:10;;;;;;;53.47;27.35;;;;;;;3.58;100.00;101126.25;5224556;28;20155;-77
2021/03/08 01:16:40;;;;;;;49.25;25.88;;;;;;;3.52;100.00;101127.97;5224523;28;20032;-76
2021/03/08 01:19:11;;;;;;;48.60;24.98;;;;;;;3.46;100.00;101127.97;5224607;28;20029;-76
2021/03/08 01:21:41;;;;;;;46.10;25.42;;;;;;;3.45;100.00;101133.13;5224451;28;20059;-75
2021/03/08 01:24:11;;;;;;;47.83;23.63;;;;;;;3.49;100.00;101121.94;5223972;28;20033;-76
2021/03/08 01:26:42;;;;;;;44.50;24.08;;;;;;;3.52;100.00;101132.31;5223976;28;20123;-76
2021/03/08 01:29:13;;;;;;;41.95;23.35;;;;;;;3.55;100.00;101132.28;5222830;28;20028;-76
2021/03/08 01:31:43;;;;;;;46.10;22.77;;;;;;;3.52;100.00;101130.56;5224400;28;20029;-77
2021/03/08 01:34:13;;;;;;;40.30;20.20;;;;;;;3.47;100.00;101129.69;5223957;28;20035;-77
2021/03/08 01:36:44;;;;;;;41.05;18.13;;;;;;;3.46;100.00;101121.94;5219987;28;20048;-76
2021/03/08 01:39:14;;;;;;;36.78;17.73;;;;;;;3.29;100.00;101137.41;5220226;28;20074;-76
2021/03/08 01:41:44;;;;;;;35.33;16.58;;;;;;;3.27;100.00;101133.97;5224074;28;20021;-76
2021/03/08 01:44:15;;;;;;;24.45;11.02;;;;;;;3.09;100.00;101140.78;5217062;28;20582;-77
2021/03/08 01:46:45;;;;;;;26.20;8.93;;;;;;;2.90;100.00;101141.56;5223509;28;20053;-76
2021/03/08 01:49:16;;;;;;;23.17;8.18;;;;;;;2.80;100.00;101140.66;5223496;28;20405;-77
2021/03/08 01:51:46;;;;;;;24.88;9.18;;;;;;;2.94;100.00;101131.28;5223665;28;20021;-76
2021/03/08 01:54:17;;;;;;;27.98;8.18;;;;;;;2.84;100.00;101131.22;5215927;28;20055;-75
2021/03/08 01:56:47;;;;;;;27.55;8.27;;;;;;;2.88;100.00;101128.66;5232470;28;20074;-76
2021/03/08 01:59:17;;;;;;;25.73;9.15;;;;;;;2.88;100.00;101138.13;5237747;28;20043;-76
2021/03/08 02:01:48;;;;;;;27.50;9.45;;;;;;;2.85;100.00;101143.28;5243416;28;20059;-76
2021/03/08 02:04:19;;;;;;;20.63;9.90;;;;;;;2.92;100.00;101139.84;5223566;28;20474;-76
2021/03/08 02:06:49;;;;;;;26.27;9.40;;;;;;;2.90;100.00;101141.56;5222949;28;20033;-76
2021/03/08 02:09:20;;;;;;;25.27;9.52;;;;;;;2.94;100.00;101135.56;5220804;28;20429;-76
2021/03/08 02:11:58;;;;;;;27.25;9.10;;;;;;;2.88;100.00;101143.28;5222831;28;20021;-76
2021/03/08 02:14:50;;;;;;;25.08;9.00;;;;;;;2.93;100.00;101146.75;5218085;28;20267;-77
2021/03/08 02:17:31;;;;;;;31.45;9.48;;;;;;;2.70;100.00;101144.06;5223531;28;20103;-76
2021/03/08 02:20:11;;;;;;;36.00;8.70;;;;;;;2.78;100.00;101144.97;5223356;28;20029;-77
2021/03/08 02:23:18;;;;;;;27.88;8.32;;;;;;;2.91;100.00;101149.34;5222928;28;20036;-76
2021/03/08 02:25:57;;;;;;;27.83;8.35;;;;;;;2.98;100.00;101147.63;5218127;28;20018;-76
2021/03/08 02:28:46;;;;;;;23.77;7.32;;;;;;;2.91;100.00;101143.28;5218084;28;20104;-76
2021/03/08 02:31:19;;;;;;;29.42;7.93;;;;;;;2.84;100.00;101146.72;5222420;28;20450;-76
2021/03/08 02:33:58;;;;;;;26.63;7.22;;;;;;;2.77;100.00;101144.94;5222954;28;20029;-77
2021/03/08 02:36:34;;;;;;;25.90;7.40;;;;;;;2.82;100.00;101141.53;5203067;28;20013;-76
2021/03/08 02:39:11;;;;;;;33.50;7.88;;;;;;;2.73;100.00;101136.34;5219475;28;20079;-77
2021/03/08 02:41:45;;;;;;;25.02;7.50;;;;;;;2.79;100.00;101143.22;5222163;28;20382;-76
2021/03/08 02:44:19;;;;;;;26.38;7.35;;;;;;;2.75;100.00;101137.22;5222755;28;20025;-76
2021/03/08 02:46:51;;;;;;;22.90;7.80;;;;;;;2.82;100.00;101138.97;5222492;28;20029;-77
2021/03/08 02:49:24;;;;;;;22.95;7.70;;;;;;;2.85;100.00;101143.28;5222522;28;20091;-77
2021/03/08 02:52:08;;;;;;;28.85;7.57;;;;;;;2.79;100.00;101149.28;5222210;28;20036;-76
2021/03/08 02:54:43;;;;;;;28.35;7.53;;;;;;;2.86;100.00;101150.16;5222150;28;20029;-77
2021/03/08 02:57:16;;;;;;;21.38;7.10;;;;;;;2.76;100.00;101154.41;5220922;28;20430;-76
2021/03/08 02:59:49;;;;;;;20.25;7.65;;;;;;;2.85;100.00;101154.44;5221918;28;20029;-76
2021/03/08 03:02:21;;;;;;;21.30;7.35;;;;;;;2.78;100.00;101157.00;5221305;28;20561;-76
2021/03/08 03:04:53;;;;;;;26.60;7.90;;;;;;;2.74;100.00;101150.09;5221491;28;20086;-76
2021/03/08 03:07:26;;;;;;;24.35;7.78;;;;;;;2.79;100.00;101154.44;5222107;28;20029;-76
2021/03/08 03:09:56;;;;;;;23.30;7.13;;;;;;;2.71;100.00;101156.09;5222554;28;20032;-77
2021/03/08 03:12:28;;;;;;;26.75;7.63;;;;;;;2.65;100.00;101156.06;5222104;28;20096;-77
2021/03/08 03:15:00;;;;;;;30.98;8.23;;;;;;;2.62;100.00;101161.22;5221155;28;20029;-76
2021/03/08 03:17:32;;;;;;;20.17;7.18;;;;;;;2.65;100.00;101163.81;5221388;28;20024;-77
2021/03/08 03:20:09;;;;;;;24.42;7.13;;;;;;;2.55;100.00;101163.75;5222813;28;20029;-77
2021/03/08 03:22:43;;;;;;;23.55;7.03;;;;;;;2.54;100.00;101167.19;5202254;28;20028;-76
2021/03/08 03:25:18;;;;;;;26.45;7.25;;;;;;;2.41;100.00;101157.66;5221766;28;20036;-75
2021/03/08 03:27:50;;;;;;;26.83;7.38;;;;;;;2.40;100.00;101179.13;5220028;28;20379;-75
2021/03/08 03:30:23;;;;;;;26.95;7.20;;;;;;;2.40;100.00;101179.13;5221353;28;20033;-75
2021/03/08 03:32:54;;;;;;;26.20;7.05;;;;;;;2.29;100.00;101191.06;5221453;28;20198;-75
2021/03/08 03:35:27;;;;;;;23.95;6.75;;;;;;;2.25;100.00;101184.19;5221768;28;20067;-75
2021/03/08 03:37:59;;;;;;;23.35;7.40;;;;;;;2.12;100.00;101197.81;5221484;28;20036;-75
2021/03/08 03:40:29;;;;;;;26.33;5.93;;;;;;;2.21;100.00;101201.34;5221610;28;20032;-75
2021/03/08 03:43:00;;;;;;;26.33;6.13;;;;;;;2.11;100.00;101212.44;5221677;28;20382;-75
2021/03/08 03:45:30;;;;;;;27.52;5.93;;;;;;;2.04;100.00;101212.38;5222011;28;20031;-75
2021/03/08 03:48:01;;;;;;;19.27;5.57;;;;;;;2.11;100.00;101212.44;5221495;28;20037;-75
2021/03/08 03:50:31;;;;;;;21.40;6.07;;;;;;;2.14;100.00;101216.75;5221840;28;20112;-75
2021/03/08 03:53:04;;;;;;;25.40;5.88;;;;;;;2.00;100.00;101220.94;5224308;28;20288;-75
2021/03/08 03:55:35;;;;;;;26.35;5.82;;;;;;;1.90;100.00;101224.25;5225198;28;20017;-74
2021/03/08 03:58:14;;;;;;;18.42;5.85;;;;;;;1.87;100.00;101222.53;5225129;28;20028;-75
2021/03/08 04:00:52;;;;;;;22.67;5.72;;;;;;;2.00;100.00;101228.66;5226212;28;20553;-75
2021/03/08 04:03:33;;;;;;;21.85;5.85;;;;;;;1.86;100.00;101231.09;5225790;28;20232;-75
2021/03/08 04:06:06;;;;;;;21.38;5.75;;;;;;;1.76;100.00;101225.81;5225762;28;20033;-75
2021/03/08 04:08:44;;;;;;;25.10;5.85;;;;;;;1.68;100.00;101230.06;5225236;28;20399;-75
2021/03/08 04:11:17;;;;;;;27.52;5.53;;;;;;;1.62;100.00;101235.16;5225338;28;20031;-75
2021/03/08 04:13:47;;;;;;;23.10;5.40;;;;;;;1.63;100.00;101236.88;5225350;28;20025;-75
2021/03/08 04:16:19;;;;;;;21.45;5.72;;;;;;;1.71;100.00;101235.22;5225347;28;20390;-75
2021/03/08 04:18:52;;;;;;;19.98;5.32;;;;;;;1.60;100.00;101238.53;5225376;28;20059;-75
2021/03/08 04:21:23;;;;;;;27.92;5.53;;;;;;;1.42;100.00;101249.50;5219576;28;20104;-76
2021/03/08 04:23:56;;;;;;;20.90;5.25;;;;;;;1.53;100.00;101245.34;5224977;28;20033;-75
2021/03/08 04:26:26;;;;;;;21.48;5.38;;;;;;;1.63;100.00;101243.72;5219443;28;20020;-75
2021/03/08 04:28:58;;;;;;;23.73;6.00;;;;;;;1.48;100.00;101246.13;5224998;28;20505;-76
2021/03/08 04:31:28;;;;;;;25.75;5.88;;;;;;;1.48;100.00;101257.31;5218796;28;20021;-75
2021/03/08 04:34:03;;;;;;;23.35;5.57;;;;;;;1.66;100.00;101261.78;5225002;28;20031;-76
2021/03/08 04:36:35;;;;;;;21.10;5.67;;;;;;;1.56;100.00;101263.38;5224826;28;20143;-76
2021/03/08 04:39:06;;;;;;;25.60;5.45;;;;;;;1.43;100.00;101274.38;5224988;28;20272;-75
2021/03/08 04:41:36;;;;;;;22.73;5.97;;;;;;;1.53;100.00;101271.09;5221098;28;20493;-75
2021/03/08 04:44:08;;;;;;;21.88;5.85;;;;;;;1.62;100.00;101276.34;5229714;28;20021;-76
2021/03/08 04:46:39;;;;;;;26.75;6.60;;;;;;;1.68;100.00;101275.53;5229993;28;20486;-75
2021/03/08 04:49:10;;;;;;;27.65;6.70;;;;;;;1.81;100.00;101273.13;5233605;28;20108;-76
2021/03/08 04:51:40;;;;;;;26.25;7.05;;;;;;;1.82;100.00;101277.44;5231881;28;20035;-76
2021/03/08 04:54:12;;;;;;;27.52;6.88;;;;;;;1.80;100.00;101277.41;5230684;28;20444;-76
2021/03/08 04:56:43;;;;;;;27.20;6.38;;;;;;;1.79;100.00;101283.41;5226823;28;20024;-76
2021/03/08 04:59:14;;;;;;;20.00;6.55;;;;;;;1.87;100.00;101279.22;5219776;28;20025;-76
2021/03/08 05:01:48;;;;;;;33.10;7.50;;;;;;;1.81;100.00;101283.44;5224515;28;20032;-77
2021/03/08 05:04:20;;;;;;;25.40;6.72;;;;;;;1.65;100.00;101283.25;5223243;28;20028;-76
2021/03/08 05:06:51;;;;;;;29.23;7.18;;;;;;;1.42;100.00;101292.41;5222396;28;20069;-76
2021/03/08 05:09:22;;;;;;;26.33;7.28;;;;;;;1.64;100.00;101289.25;5224681;28;20021;-76
2021/03/08 05:11:54;;;;;;;21.23;6.50;;;;;;;1.72;100.00;101291.06;5221704;28;20043;-76
2021/03/08 05:14:26;;;;;;;25.25;6.70;;;;;;;1.76;100.00;101287.66;5219258;28;20033;-76
2021/03/08 05:16:57;;;;;;;23.88;6.53;;;;;;;1.78;100.00;101285.94;5224012;28;20025;-76
2021/03/08 05:19:27;;;;;;;22.15;6.95;;;;;;;1.51;100.00;101284.78;5224658;28;20025;-76
2021/03/08 05:21:58;;;;;;;27.30;6.75;;;;;;;1.58;100.00;101289.19;5224278;28;20039;-76
2021/03/08 05:24:29;;;;;;;29.92;6.55;;;;;;;1.45;100.00;101288.16;5224074;28;20040;-76
2021/03/08 05:27:08;;;;;;;33.55;7.20;;;;;;;1.39;100.00;101287.22;5223961;28;20130;-76
2021/03/08 05:29:43;;;;;;;28.73;7.15;;;;;;;1.40;100.00;101289.81;5223987;28;20108;-76
2021/03/08 05:32:18;;;;;;;24.10;6.78;;;;;;;1.40;100.00;101288.97;5224427;28;20025;-76
2021/03/08 05:34:49;;;;;;;17.73;4.85;;;;;;;1.33;100.00;101302.56;5223744;28;20395;-76
2021/03/08 05:37:21;;;;;;;32.17;7.78;;;;;;;1.24;100.00;101303.31;5223449;28;20036;-77
2021/03/08 05:39:52;;;;;;;33.50;7.20;;;;;;;1.25;100.00;101304.19;5223725;28;20028;-76
2021/03/08 05:42:28;;;;;;;31.63;7.40;;;;;;;1.21;100.00;101298.13;5223722;28;20078;-75
2021/03/08 05:45:18;;;;;;;27.50;7.43;;;;;;;1.05;100.00;101296.19;5224176;28;20378;-76
2021/03/08 05:48:35;;;;;;;29.65;7.40;;;;;;;1.12;100.00;101298.03;5223439;28;20032;-76
2021/03/08 05:51:57;;;;;;;25.55;7.25;;;;;;;1.11;100.00;101311.75;5179572;28;20117;-76
2021/03/08 05:54:51;;;;;;;26.30;7.65;;;;;;;0.91;100.00;101307.16;5178972;28;20039;-77
2021/03/08 05:57:45;;;;;;;27.23;7.32;;;;;;;1.10;100.00;101315.13;5221899;28;20478;-76
2021/03/08 06:00:27;;;;;;;26.08;7.55;;;;;;;0.97;100.00;101310.69;5222780;28;20029;-76
2021/03/08 06:03:16;;;;;;;32.78;7.70;;;;;;;1.03;100.00;101318.47;5223819;28;20025;-76
2021/03/08 06:06:20;;;;;;;29.00;7.30;;;;;;;1.18;100.00;101323.84;5222947;28;20107;-76
2021/03/08 06:09:20;;;;;;;22.33;7.20;;;;;;;1.25;100.00;101325.63;5223693;28;20086;-76
2021/03/08 06:12:03;;;;;;;26.85;6.97;;;;;;;1.20;100.00;101332.44;5222869;28;20505;-76
2021/03/08 06:14:40;;;;;;;24.23;7.35;;;;;;;1.30;100.00;101324.03;5218712;28;20417;-77
2021/03/08 06:17:13;;;;;;;20.85;7.40;;;;;;;1.08;100.00;101332.25;5223247;28;20021;-76
2021/03/08 06:19:45;;;;;;;22.25;7.28;;;;;;;1.04;100.00;101340.78;5223299;28;20024;-77
2021/03/08 06:22:16;;;;;;;22.85;7.60;;;;;;;0.90;100.00;101344.84;5222860;28;20435;-77
2021/03/08 06:24:46;;;;;;;23.80;7.97;;;;;;;1.07;100.00;101345.97;5223269;28;20067;-76
2021/03/08 06:27:19;;;;;;;24.55;7.13;;;;;;;1.31;100.00;101350.59;5222297;28;20079;-76
2021/03/08 06:29:51;;;;;;;17.67;6.97;;;;;;;1.17;100.00;101357.25;5221509;28;20033;-76
2021/03/08 06:32:22;;;;;;;22.38;7.22;;;;;;;1.20;100.00;101363.31;5215144;28;20033;-76
2021/03/08 06:34:52;;;;;;;24.08;7.57;;;;;;;1.24;100.00;101359.09;5220965;28;20028;-76
2021/03/08 06:37:26;;;;;;;29.08;7.82;;;;;;;1.45;100.00;101362.84;5222389;28;20017;-76
2021/03/08 06:39:56;;;;;;;24.27;6.97;;;;;;;1.36;100.00;101369.56;5213722;28;20486;-76
2021/03/08 06:42:26;;;;;;;25.67;7.40;;;;;;;1.42;100.00;101370.50;5214603;28;20031;-77
2021/03/08 06:44:57;;;;;;;27.65;7.20;;;;;;;1.62;100.00;101368.19;5222583;28;20017;-76
2021/03/08 06:47:27;;;;;;;22.00;7.05;;;;;;;1.55;100.00;101376.72;5221731;28;20033;-76
2021/03/08 06:49:58;;;;;;;26.45;7.25;;;;;;;1.55;100.00;101374.13;5222997;28;20028;-76
2021/03/08 06:52:42;;;;;;;24.42;7.25;;;;;;;1.63;100.00;101375.97;5222377;28;20033;-76
2021/03/08 06:55:13;;;;;;;25.85;7.00;;;;;;;1.78;100.00;101376.13;5222607;28;20029;-77
2021/03/08 06:57:43;;;;;;;25.45;6.85;;;;;;;1.58;100.00;101385.31;5221833;28;20021;-76
2021/03/08 07:00:14;;;;;;;27.90;7.13;;;;;;;1.31;100.00;101387.53;5222338;28;20486;-76
2021/03/08 07:02:49;;;;;;;23.38;6.40;;;;;;;1.59;100.00;101396.50;5219887;28;20024;-76
2021/03/08 07:05:22;;;;;;;22.73;6.53;;;;;;;1.27;100.00;101400.31;5201453;28;20082;-77
2021/03/08 07:08:01;;;;;;;26.13;7.13;;;;;;;1.43;100.00;101402.28;5206682;28;20028;-76
2021/03/08 07:10:41;;;;;;;22.67;6.35;;;;;;;1.84;100.00;101404.56;5209231;28;20033;-76
2021/03/08 07:13:12;;;;;;;18.40;6.35;;;;;;;1.56;100.00;101405.03;5220027;28;20024;-77
2021/03/08 07:15:56;;;;;;;23.25;6.55;;;;;;;1.72;100.00;101399.25;5222176;28;20485;-76
2021/03/08 07:18:27;;;;;;;18.13;6.05;;;;;;;1.86;100.00;101411.44;5221434;28;20442;-76
2021/03/08 07:21:17;;;;;;;23.65;5.95;;;;;;;2.16;100.00;101408.41;5222203;28;20253;-76
2021/03/08 07:23:49;;;;;;;25.80;6.53;;;;;;;2.22;100.00;101411.03;5221799;28;20387;-76
2021/03/08 07:26:22;;;;;;;18.85;5.85;;;;;;;2.29;100.00;101412.81;5221411;28;20048;-76
2021/03/08 07:29:10;;;;;;;17.75;5.35;;;;;;;2.17;100.00;101412.72;5221669;28;20020;-77
2021/03/08 07:31:49;;;;;;;20.00;5.82;;;;;;;2.54;100.00;101412.25;5221878;28;20036;-76
2021/03/08 07:34:20;;;;;;;20.25;5.28;;;;;;;3.89;96.43;101414.97;5221925;28;20044;-77
2021/03/08 07:36:59;;;;;;;16.60;4.95;;;;;;;5.07;88.12;101410.94;5221908;28;20525;-77
2021/03/08 07:39:29;;;;;;;16.90;4.20;;;;;;;6.08;84.21;101409.91;5221783;28;20040;-77
2021/03/08 07:42:04;;;;;;;14.57;4.18;;;;;;;7.90;75.77;101402.38;5216560;28;20415;-77
2021/03/08 07:44:47;;;;;;;14.93;4.20;;;;;;;7.86;72.55;101400.69;5203508;28;20124;-77
2021/03/08 07:47:20;;;;;;;16.85;3.95;;;;;;;8.40;70.60;101398.28;5221420;28;20025;-77
2021/03/08 07:49:51;;;;;;;10.25;3.47;;;;;;;9.91;64.85;101414.00;5221399;28;20196;-77
2021/03/08 07:52:22;;;;;;;9.38;3.10;;;;;;;11.29;61.61;101409.09;5221852;28;20033;-77
2021/03/08 07:54:52;;;;;;;14.88;3.58;;;;;;;11.21;60.78;101405.84;5221672;28;20052;-77
2021/03/08 07:57:24;;;;;;;13.90;3.70;;;;;;;10.58;60.03;101418.69;5221527;28;20013;-77
2021/03/08 07:59:54;;;;;;;9.60;3.63;;;;;;;10.14;61.58;101426.63;5221798;28;20803;-77
2021/03/08 08:02:24;;;;;;;12.32;3.75;;;;;;;10.38;61.88;101423.50;5222111;28;20103;-76
2021/03/08 08:04:56;;;;;;;11.35;3.63;;;;;;;8.54;65.24;101424.16;5222769;28;20025;-76
2021/03/08 08:07:27;;;;;;;12.68;3.40;;;;;;;9.77;63.24;101430.78;5221765;28;20040;-76
2021/03/08 08:10:03;;;;;;;12.68;3.30;;;;;;;8.96;64.64;101434.81;5221852;28;20066;-76
2021/03/08 08:12:34;;;;;;;11.10;3.85;;;;;;;8.54;65.22;101437.19;5221313;28;20025;-76
2021/03/08 08:15:05;;;;;;;13.90;3.55;;;;;;;6.41;72.40;101449.53;5221644;28;20033;-76
2021/03/08 08:17:38;;;;;;;11.43;2.63;;;;;;;6.64;73.48;101442.50;5221832;28;20029;-76
2021/03/08 08:20:10;;;;;;;11.25;3.25;;;;;;;9.31;64.90;101425.53;5221675;28;20126;-76
2021/03/08 08:23:02;;;;;;;13.80;3.60;;;;;;;9.39;64.30;101422.78;5221734;28;20029;-77
2021/03/08 08:25:33;;;;;;;8.07;2.60;;;;;;;8.96;62.88;101424.41;5221733;28;20025;-77
2021/03/08 08:28:03;;;;;;;12.05;3.00;;;;;;;8.94;60.98;101425.28;5220990;28;20162;-77
2021/03/08 08:30:34;;;;;;;12.45;3.10;;;;;;;9.37;63.53;101424.56;5221914;28;20024;-77
2021/03/08 08:33:04;;;;;;;8.02;2.58;;;;;;;10.85;59.79;101425.94;5221124;28;20025;-77
2021/03/08 08:35:34;;;;;;;7.78;2.67;;;;;;;12.29;56.87;101415.13;5221498;28;20401;-77
2021/03/08 08:38:11;;;;;;;8.05;2.72;;;;;;;10.32;59.87;101421.88;5221839;28;20108;-77
2021/03/08 08:40:43;;;;;;;10.63;2.78;;;;;;;9.90;60.02;101427.94;5225058;28;20074;-77
2021/03/08 08:43:13;;;;;;;11.05;2.85;;;;;;;11.55;59.96;101427.63;5224590;28;20021;-77
2021/03/08 08:45:54;;;;;;;10.63;3.10;;;;;;;11.02;59.64;101428.13;5225064;28;20051;-77
2021/03/08 08:48:24;;;;;;;8.52;3.10;;;;;;;12.21;57.87;101422.34;5216110;28;20029;-77
2021/03/08 08:50:55;;;;;;;10.10;3.05;;;;;;;11.61;55.02;101429.28;5224841;28;20032;-77
2021/03/08 08:53:35;;;;;;;11.25;2.90;;;;;;;12.64;53.94;101421.03;5225068;28;20384;-77
2021/03/08 08:56:06;;;;;;;7.80;2.88;;;;;;;13.27;54.69;101421.66;5224647;28;20056;-77
2021/03/08 08:58:45;;;;;;;9.27;2.95;;;;;;;13.41;54.24;101424.69;5224041;28;20020;-77
2021/03/08 09:01:18;;;;;;;7.57;3.20;;;;;;;13.04;53.53;101430.28;5224814;28;20029;-77
2021/03/08 09:03:48;;;;;;;8.18;3.30;;;;;;;14.76;50.21;101420.56;5224709;28;20459;-77
2021/03/08 09:06:51;;;;;;;10.37;3.17;;;;;;;13.23;51.39;101426.13;5225755;28;20092;-77
2021/03/08 09:09:31;;;;;;;12.18;3.20;;;;;;;12.79;55.09;101428.44;5203623;28;20127;-77
2021/03/08 09:12:03;;;;;;;9.40;3.03;;;;;;;11.36;57.99;101431.63;5222749;28;20090;-77
2021/03/08 09:14:37;;;;;;;8.10;3.33;;;;;;;9.85;62.30;101439.34;5224433;28;20486;-77
2021/03/08 09:17:28;;;;;;;9.75;3.60;;;;;;;8.63;63.82;101437.91;5224730;28;20092;-77
2021/03/08 09:19:58;;;;;;;8.52;3.40;;;;;;;8.53;63.90;101441.50;5224402;28;20029;-77
2021/03/08 09:22:29;;;;;;;11.38;3.80;;;;;;;9.04;64.03;101434.69;5224948;28;20051;-77
2021/03/08 09:25:08;;;;;;;10.47;3.53;;;;;;;7.34;69.31;101446.31;5225140;28;20060;-76
2021/03/08 09:27:44;;;;;;;12.27;4.00;;;;;;;6.62;70.86;101446.81;5223833;28;20287;-76
2021/03/08 09:30:19;;;;;;;9.43;3.50;;;;;;;6.83;70.40;101446.72;5224298;28;20056;-76
2021/03/08 09:33:01;;;;;;;7.80;3.28;;;;;;;6.03;69.16;101445.34;5224346;28;20031;-76
2021/03/08 09:35:35;;;;;;;9.82;3.08;;;;;;;6.26;68.26;101443.56;5224231;28;20475;-75
2021/03/08 09:38:14;;;;;;;8.40;3.30;;;;;;;6.23;70.34;101447.00;5223752;28;20021;-76
2021/03/08 09:40:47;;;;;;;14.40;3.22;;;;;;;6.32;70.76;101436.63;5223988;28;20056;-76
2021/03/08 09:43:24;;;;;;;9.45;2.60;;;;;;;6.08;69.71;101435.84;5224132;28;20035;-76
2021/03/08 09:46:09;;;;;;;8.10;2.42;;;;;;;5.92;70.09;101437.63;5227840;28;20032;-75
2021/03/08 09:48:41;;;;;;;10.02;2.08;;;;;;;6.11;68.01;101441.03;5229730;28;20059;-75
2021/03/08 09:51:13;;;;;;;6.82;2.03;;;;;;;6.32;68.73;101439.22;5222308;28;20123;-76
2021/03/08 09:53:49;;;;;;;8.27;2.20;;;;;;;6.52;67.42;101437.38;5225335;28;20104;-75
2021/03/08 09:56:21;;;;;;;7.07;1.85;;;;;;;6.40;68.77;101436.56;5223701;28;20127;-74
2021/03/08 09:59:04;;;;;;;10.25;2.33;;;;;;;5.57;67.25;101435.97;5224097;28;20025;-76
2021/03/08 10:01:36;;;;;;;7.97;2.13;;;;;;;6.11;68.94;101435.84;5223438;28;20109;-76
2021/03/08 10:04:17;;;;;;;7.63;1.75;;;;;;;5.85;68.12;101435.91;5234622;28;20036;-76
2021/03/08 10:06:47;;;;;;;7.03;1.95;;;;;;;6.28;70.54;101436.63;5240533;28;20028;-75
2021/03/08 10:09:22;;;;;;;8.60;1.90;;;;;;;5.93;70.39;101441.09;5221833;28;20114;-76
2021/03/08 10:12:02;;;;;;;4.63;1.38;;;;;;;5.13;71.50;101450.66;5224514;28;20081;-76
2021/03/08 10:14:32;;;;;;;6.38;1.73;;;;;;;4.84;69.50;101457.53;5211998;28;20104;-75
2021/03/08 10:17:09;;;;;;;5.40;1.70;;;;;;;5.10;71.48;101445.47;5226804;28;20108;-75
2021/03/08 10:19:58;;;;;;;7.22;1.90;;;;;;;5.30;69.90;101441.16;5227842;28;20024;-75
2021/03/08 10:22:40;;;;;;;6.30;1.60;;;;;;;5.78;69.12;101441.97;5225028;28;20028;-75
2021/03/08 10:25:22;;;;;;;5.50;1.85;;;;;;;5.65;70.33;101447.16;5209927;28;20509;-75
2021/03/08 10:28:03;;;;;;;6.25;1.80;;;;;;;5.33;70.38;101446.34;5220473;28;20124;-76
2021/03/08 10:30:35;;;;;;;5.53;1.52;;;;;;;5.55;68.83;101445.47;5221619;28;20036;-76
2021/03/08 10:33:10;;;;;;;4.95;1.60;;;;;;;5.44;70.65;101444.59;5222551;28;20025;-75
2021/03/08 10:35:53;;;;;;;6.20;1.40;;;;;;;5.24;72.14;101438.56;5221790;28;20028;-75
2021/03/08 10:38:27;;;;;;;9.05;1.58;;;;;;;5.27;72.74;101446.34;5217540;28;21018;-75
2021/03/08 10:40:59;;;;;;;5.80;1.67;;;;;;;5.18;70.40;101448.94;5209368;28;20026;-76
2021/03/08 10:43:30;;;;;;;5.60;1.35;;;;;;;5.24;69.51;101443.75;5194023;28;20028;-76
2021/03/08 10:46:02;;;;;;;6.28;1.60;;;;;;;5.02;68.10;101438.56;5221812;28;20033;-75
2021/03/08 10:48:32;;;;;;;4.57;1.33;;;;;;;5.00;70.58;101446.31;5223725;28;20035;-75
2021/03/08 10:51:03;;;;;;;10.38;1.58;;;;;;;4.92;69.58;101449.78;5231045;28;20021;-75
2021/03/08 10:53:33;;;;;;;5.40;1.48;;;;;;;5.44;71.56;101452.38;5222098;28;20131;-75
2021/03/08 10:56:19;;;;;;;3.45;1.10;;;;;;;5.30;66.73;101451.53;5222140;28;20032;-75
2021/03/08 10:58:50;;;;;;;5.65;1.60;;;;;;;5.37;68.10;101445.50;5219485;28;20033;-76
2021/03/08 11:01:22;;;;;;;6.40;1.25;;;;;;;5.03;67.21;101451.53;5221766;28;20025;-76
2021/03/08 11:03:52;;;;;;;5.72;0.88;;;;;;;4.99;67.50;101451.53;5221163;28;20505;-75
2021/03/08 11:06:24;;;;;;;6.35;1.05;;;;;;;5.23;68.72;101444.63;5219553;28;20037;-75
2021/03/08 11:09:05;;;;;;;5.68;0.90;;;;;;;4.93;65.16;101451.50;5217604;28;20028;-75
2021/03/08 11:11:43;;;;;;;3.40;1.00;;;;;;;5.47;65.09;101453.25;5237395;28;20470;-76
2021/03/08 11:14:13;;;;;;;4.30;1.02;;;;;;;5.58;65.81;101445.47;5242352;28;20028;-76
2021/03/08 11:16:55;;;;;;;6.55;0.80;;;;;;;4.98;64.78;101452.38;5242718;28;20374;-76
2021/03/08 11:19:28;;;;;;;2.08;0.52;;;;;;;5.09;59.59;101456.72;5228672;28;20118;-75
2021/03/08 11:22:14;;;;;;;1.27;0.50;;;;;;;5.16;57.97;101445.47;5219457;28;20623;-75
2021/03/08 11:24:49;;;;;;;2.95;0.55;;;;;;;5.31;55.75;101450.66;5201149;28;20030;-76
2021/03/08 11:27:24;;;;;;;2.08;0.77;;;;;;;5.30;57.82;101451.53;5201002;28;20025;-75
2021/03/08 11:30:03;;;;;;;3.92;0.70;;;;;;;5.15;56.51;101451.53;5209909;28;20024;-75
2021/03/08 11:32:35;;;;;;;4.55;0.80;;;;;;;4.97;56.23;101454.09;5233039;28;20028;-75
2021/03/08 11:35:13;;;;;;;3.40;0.68;;;;;;;5.30;58.40;101443.75;5233054;28;20529;-76
2021/03/08 11:37:47;;;;;;;5.18;0.90;;;;;;;5.10;59.99;101445.47;5226381;28;20520;-76
2021/03/08 11:40:20;;;;;;;5.20;1.00;;;;;;;5.29;62.02;101457.56;5221453;28;20023;-75
2021/03/08 11:42:51;;;;;;;5.32;1.00;;;;;;;5.05;60.43;101441.16;5220940;28;20021;-75
2021/03/08 11:45:22;;;;;;;3.20;0.90;;;;;;;5.26;60.75;101447.22;5222043;28;20024;-76
2021/03/08 11:47:54;;;;;;;5.13;0.90;;;;;;;5.36;59.23;101428.19;5220320;28;20117;-75
2021/03/08 11:50:26;;;;;;;3.33;1.10;;;;;;;5.41;59.94;101426.47;5221795;28;20029;-76
2021/03/08 11:52:56;;;;;;;5.40;1.00;;;;;;;5.48;60.41;101435.97;5221375;28;20025;-76